createdAt,value
2023-06-01T00:01:55.819Z,72.50
2023-06-01T00:06:57.636Z,71.82
2023-06-01T00:11:59.369Z,75.04
2023-06-01T00:17:01.301Z,76.22
2023-06-01T00:22:03.238Z,75.93
2023-06-01T00:27:06.379Z,75.97
2023-06-01T00:32:08.436Z,77.15
2023-06-01T00:37:10.142Z,77.43
2023-06-01T00:42:12.760Z,77.09
2023-06-01T00:47:14.840Z,75.72
2023-06-01T00:52:17.186Z,76.03
2023-06-01T00:57:22.149Z,75.86
2023-06-01T01:02:24.419Z,77.35
2023-06-01T01:07:33.988Z,77.37
2023-06-01T01:12:47.856Z,76.94
2023-06-01T01:17:55.254Z,77.97
2023-06-01T01:23:18.192Z,78.24
2023-06-01T01:28:37.034Z,79.34
2023-06-01T01:33:40.965Z,80.40
2023-06-01T01:38:42.882Z,80.35
2023-06-01T01:43:45.734Z,80.17
2023-06-01T01:49:03.290Z,80.08
2023-06-01T01:54:10.765Z,79.40
2023-06-01T01:59:13.853Z,79.05
2023-06-01T02:04:15.823Z,78.83
2023-06-01T02:09:18.127Z,78.65
2023-06-01T02:14:19.825Z,77.20
2023-06-01T02:19:22.027Z,77.64
2023-06-01T02:24:24.245Z,76.26
2023-06-01T02:29:26.121Z,76.47
2023-06-01T02:34:27.935Z,77.70
2023-06-01T02:39:29.665Z,78.50
2023-06-01T02:44:31.574Z,76.84
2023-06-01T02:49:33.495Z,77.89
2023-06-01T02:54:36.073Z,78.04
2023-06-01T02:59:47.589Z,77.18
2023-06-01T03:04:49.949Z,75.66
2023-06-01T03:09:52.479Z,76.30
2023-06-01T03:15:12.714Z,72.06
2023-06-01T03:20:17.181Z,68.43
2023-06-01T03:25:19.125Z,63.57
2023-06-01T03:30:20.970Z,61.02
2023-06-01T03:35:23.051Z,62.14
2023-06-01T03:40:25.213Z,59.42
2023-06-01T03:45:27.150Z,54.03
2023-06-01T03:50:28.841Z,51.46
2023-06-01T03:55:32.171Z,49.23
2023-06-01T04:00:38.610Z,46.86
2023-06-01T04:07:19.679Z,42.03
2023-06-01T04:12:21.836Z,40.67
2023-06-01T04:17:23.807Z,38.15
2023-06-01T04:22:25.786Z,37.05
2023-06-01T04:27:28.183Z,35.28
2023-06-01T04:32:29.925Z,34.72
2023-06-01T04:37:36.359Z,33.99
2023-06-01T04:42:46.794Z,33.28
2023-06-01T04:47:49.410Z,31.55
2023-06-01T04:52:57.346Z,31.27
2023-06-01T04:57:59.279Z,30.99
2023-06-01T05:03:01.485Z,30.64
2023-06-01T05:08:03.377Z,29.87
2023-06-01T05:13:05.900Z,30.41
2023-06-01T05:18:08.036Z,30.13
2023-06-01T05:23:09.850Z,30.63
2023-06-01T05:28:12.250Z,31.41
2023-06-01T05:33:16.624Z,32.73
2023-06-01T05:38:18.392Z,34.32
2023-06-01T05:43:20.391Z,34.66
2023-06-01T05:48:22.429Z,33.67
2023-06-01T05:53:30.751Z,33.16
2023-06-01T05:58:32.609Z,32.68
2023-06-01T06:03:34.916Z,32.41
2023-06-01T06:08:37.083Z,32.08
2023-06-01T06:13:38.823Z,31.92
2023-06-01T06:18:40.539Z,31.21
2023-06-01T06:23:42.436Z,30.57
2023-06-01T06:28:44.181Z,30.32
2023-06-01T06:33:46.060Z,30.57
2023-06-01T06:38:48.405Z,31.22
2023-06-01T06:43:50.102Z,31.97
2023-06-01T06:48:52.205Z,32.73
2023-06-01T06:53:53.980Z,33.68
2023-06-01T06:59:06.944Z,34.35
2023-06-01T07:04:10.377Z,35.28
2023-06-01T07:09:12.349Z,36.69
2023-06-01T07:14:14.879Z,37.43
2023-06-01T07:19:16.783Z,38.28
2023-06-01T07:24:22.651Z,38.51
2023-06-01T07:29:24.363Z,38.50
2023-06-01T07:34:26.411Z,38.55
2023-06-01T07:39:28.368Z,38.96
2023-06-01T07:44:30.067Z,39.90
2023-06-01T07:49:31.912Z,39.53
2023-06-01T07:54:36.589Z,38.83
2023-06-01T07:59:38.440Z,38.66
2023-06-01T08:04:40.658Z,38.97
2023-06-01T08:09:43.695Z,39.05
2023-06-01T08:14:46.315Z,39.26
2023-06-01T08:19:48.599Z,37.59
2023-06-01T08:24:52.489Z,36.22
2023-06-01T08:29:55.230Z,35.85
2023-06-01T08:34:57.382Z,36.02
2023-06-01T08:40:00.707Z,35.41
2023-06-01T08:45:06.720Z,35.52
2023-06-01T08:50:17.500Z,35.35
2023-06-01T08:55:19.528Z,33.99
2023-06-01T09:00:22.041Z,33.17
2023-06-01T09:05:23.767Z,32.78
2023-06-01T09:10:26.510Z,32.47
2023-06-01T09:15:28.252Z,33.74
2023-06-01T09:20:32.892Z,32.91
2023-06-01T09:25:35.155Z,33.59
2023-06-01T09:30:42.309Z,32.53
2023-06-01T09:35:46.597Z,31.64
2023-06-01T09:41:01.363Z,31.66
2023-06-01T09:46:07.559Z,30.71
2023-06-01T09:51:24.124Z,31.45
2023-06-01T09:56:26.970Z,30.87
2023-06-01T10:01:32.173Z,30.48
2023-06-01T10:06:38.500Z,29.84
2023-06-01T10:11:40.415Z,30.07
2023-06-01T10:16:43.563Z,30.34
2023-06-01T10:21:46.713Z,29.42
2023-06-01T10:27:16.908Z,29.88
2023-06-01T10:32:37.349Z,28.76
2023-06-01T10:37:39.203Z,29.31
2023-06-01T10:42:41.706Z,29.34
2023-06-01T10:47:43.406Z,29.11
2023-06-01T10:52:45.390Z,28.02
2023-06-01T10:57:48.261Z,28.44
2023-06-01T11:02:51.657Z,29.79
2023-06-01T11:07:54.141Z,28.22
2023-06-01T11:13:12.960Z,27.26
2023-06-01T11:18:59.847Z,27.51
2023-06-01T11:24:07.155Z,27.33
2023-06-01T11:29:12.374Z,27.66
2023-06-01T11:34:16.604Z,27.44
2023-06-01T11:39:26.709Z,27.74
2023-06-01T11:44:28.393Z,28.08
2023-06-01T11:49:30.298Z,28.18
2023-06-01T11:54:32.087Z,28.46
2023-06-01T11:59:45.561Z,28.38
2023-06-01T12:05:13.101Z,28.36
2023-06-01T12:10:17.936Z,28.53
2023-06-01T12:15:20.800Z,28.09
2023-06-01T12:20:30.857Z,27.62
2023-06-01T12:25:33.231Z,27.69
2023-06-01T12:30:35.508Z,27.85
2023-06-01T12:35:51.001Z,27.37
2023-06-01T12:41:23.150Z,27.32
2023-06-01T12:46:31.317Z,27.65
2023-06-01T12:51:33.339Z,27.96
2023-06-01T12:56:36.723Z,27.85
2023-06-01T13:01:39.043Z,26.62
2023-06-01T13:06:41.136Z,26.88
2023-06-01T13:11:43.102Z,26.96
2023-06-01T13:16:45.700Z,28.13
2023-06-01T13:21:48.099Z,28.37
2023-06-01T13:26:50.534Z,28.85
2023-06-01T13:31:52.367Z,28.30
2023-06-01T13:36:54.337Z,28.32
2023-06-01T13:41:56.107Z,28.14
2023-06-01T13:46:57.858Z,28.13
2023-06-01T13:52:00.270Z,28.40
2023-06-01T13:57:06.868Z,27.76
2023-06-01T14:02:10.069Z,27.29
2023-06-01T14:07:11.910Z,27.44
2023-06-01T14:12:13.685Z,27.20
2023-06-01T14:17:15.581Z,28.50
2023-06-01T14:22:17.977Z,28.26
2023-06-01T14:27:21.135Z,29.32
2023-06-01T14:32:22.998Z,28.59
2023-06-01T14:37:26.197Z,29.29
2023-06-01T14:42:31.803Z,29.51
2023-06-01T14:47:34.133Z,29.49
2023-06-01T14:52:35.999Z,29.64
2023-06-01T14:57:37.791Z,30.24
2023-06-01T15:02:39.648Z,28.64
2023-06-01T15:07:41.512Z,28.03
2023-06-01T15:12:43.340Z,28.69
2023-06-01T15:17:45.785Z,30.69
2023-06-01T15:22:47.635Z,31.55
2023-06-01T15:27:49.361Z,31.75
2023-06-01T15:33:06.918Z,32.11
2023-06-01T15:38:10.360Z,31.34
2023-06-01T15:43:12.084Z,31.69
2023-06-01T15:48:13.852Z,31.76
2023-06-01T15:53:15.804Z,32.11
2023-06-01T15:58:18.351Z,30.76
2023-06-01T16:03:20.141Z,30.22
2023-06-01T16:08:22.496Z,29.69
2023-06-01T16:13:24.195Z,31.15
2023-06-01T16:18:26.060Z,30.44
2023-06-01T16:23:27.975Z,30.44
2023-06-01T16:28:29.857Z,31.79
2023-06-01T16:33:31.560Z,32.28
2023-06-01T16:38:33.248Z,31.84
2023-06-01T16:43:35.141Z,32.01
2023-06-01T16:48:36.986Z,31.23
2023-06-01T16:53:38.794Z,30.69
2023-06-01T16:58:40.760Z,31.20
2023-06-01T17:03:42.683Z,31.80
2023-06-01T17:08:55.595Z,31.95
2023-06-01T17:13:57.341Z,31.77
2023-06-01T17:18:59.115Z,31.97
2023-06-01T17:24:10.489Z,32.38
2023-06-01T17:29:13.193Z,32.29
2023-06-01T17:34:15.146Z,32.84
2023-06-01T17:39:22.373Z,32.95
2023-06-01T17:44:26.436Z,32.77
2023-06-01T17:49:28.510Z,33.16
2023-06-01T17:54:30.551Z,34.32
2023-06-01T17:59:32.386Z,34.35
2023-06-01T18:04:34.038Z,34.14
2023-06-01T18:09:35.780Z,34.65
2023-06-01T18:14:37.477Z,35.83
2023-06-01T18:19:41.402Z,36.37
2023-06-01T18:24:43.804Z,36.62
2023-06-01T18:29:49.510Z,36.79
2023-06-01T18:34:51.590Z,38.67
2023-06-01T18:39:53.329Z,39.51
2023-06-01T18:44:55.537Z,41.29
2023-06-01T18:49:57.489Z,43.39
2023-06-01T18:54:59.212Z,44.09
2023-06-01T19:00:01.078Z,45.65
2023-06-01T19:05:04.110Z,49.12
2023-06-01T19:10:11.071Z,51.93
2023-06-01T19:15:13.681Z,51.05
2023-06-01T19:20:34.267Z,51.07
2023-06-01T19:25:37.077Z,50.83
2023-06-01T19:30:38.858Z,52.58
2023-06-01T19:35:40.837Z,54.92
2023-06-01T19:40:46.091Z,56.96
2023-06-01T19:45:47.801Z,58.06
2023-06-01T19:50:49.926Z,58.48
2023-06-01T19:55:52.587Z,61.53
2023-06-01T20:00:55.782Z,59.92
2023-06-01T20:05:57.467Z,58.97
2023-06-01T20:10:59.544Z,59.43
2023-06-01T20:16:01.334Z,62.18
2023-06-01T20:21:03.473Z,63.54
2023-06-01T20:26:05.392Z,63.71
2023-06-01T20:31:07.452Z,63.39
2023-06-01T20:36:09.605Z,63.68
2023-06-01T20:41:22.987Z,62.75
2023-06-01T20:46:33.150Z,61.84
2023-06-01T20:51:37.358Z,61.02
2023-06-01T20:56:50.616Z,60.89
2023-06-01T21:01:55.310Z,63.23
2023-06-01T21:06:58.090Z,64.09
2023-06-01T21:12:00.514Z,60.92
2023-06-01T21:17:03.619Z,62.56
2023-06-01T21:22:06.176Z,62.48
2023-06-01T21:27:08.125Z,62.89
2023-06-01T21:32:09.921Z,65.14
2023-06-01T21:37:11.731Z,67.37
2023-06-01T21:42:13.965Z,68.68
2023-06-01T21:47:16.947Z,68.07
2023-06-01T21:52:18.737Z,68.16
2023-06-01T21:57:20.961Z,68.30
2023-06-01T22:02:44.498Z,65.86
2023-06-01T22:07:53.408Z,65.88
2023-06-01T22:12:56.976Z,65.71
2023-06-01T22:17:59.279Z,66.22
2023-06-01T22:23:01.187Z,66.64
2023-06-01T22:28:03.403Z,67.40
2023-06-01T22:33:05.192Z,67.30
2023-06-01T22:38:07.093Z,68.65
2023-06-01T22:43:08.802Z,70.03
2023-06-01T22:48:10.636Z,70.30
2023-06-01T22:53:12.475Z,71.09
2023-06-01T22:58:14.392Z,71.72
2023-06-01T23:03:16.898Z,70.57
2023-06-01T23:08:22.990Z,69.44
2023-06-01T23:13:28.951Z,68.81
2023-06-01T23:18:31.333Z,68.64
2023-06-01T23:23:34.259Z,69.13
2023-06-01T23:28:56.745Z,68.25
2023-06-01T23:33:58.729Z,68.42
2023-06-01T23:39:05.580Z,69.33
2023-06-01T23:44:07.815Z,68.56
2023-06-01T23:49:10.061Z,69.10
2023-06-01T23:54:15.345Z,68.53
2023-06-01T23:59:17.331Z,69.36
